createdAt,value
2023-01-13T00:00:22.125Z,92620.44
2023-01-13T00:03:05.319Z,92621.63
2023-01-13T00:05:49.551Z,92620.13
2023-01-13T00:08:33.031Z,92627.91
2023-01-13T00:11:16.391Z,92629.63
2023-01-13T00:13:59.381Z,92621.88
2023-01-13T00:16:42.339Z,92624.44
2023-01-13T00:19:25.230Z,92625.00
2023-01-13T00:22:09.590Z,92621.38
2023-01-13T00:24:52.485Z,92615.25
2023-01-13T00:27:35.679Z,92620.06
2023-01-13T00:30:18.812Z,92615.56
2023-01-13T00:33:01.772Z,92621.44
2023-01-13T00:35:44.727Z,92614.03
2023-01-13T00:38:29.445Z,92612.88
2023-01-13T00:41:15.174Z,92607.53
2023-01-13T00:43:57.120Z,92609.25
2023-01-13T00:46:40.069Z,92606.72
2023-01-13T00:49:22.960Z,92607.41
2023-01-13T00:52:06.100Z,92614.34
2023-01-13T00:54:50.395Z,92614.09
2023-01-13T00:57:33.367Z,92617.59
2023-01-13T01:00:16.786Z,92621.75
2023-01-13T01:03:00.162Z,92614.78
2023-01-13T01:05:43.035Z,92619.91
2023-01-13T01:08:25.994Z,92619.78
2023-01-13T01:11:13.033Z,92622.34
2023-01-13T01:13:57.336Z,92601.13
2023-01-13T01:16:41.460Z,92610.25
2023-01-13T01:19:24.559Z,92621.25
2023-01-13T01:22:07.475Z,92620.34
2023-01-13T01:24:50.404Z,92617.78
2023-01-13T01:27:34.715Z,92625.28
2023-01-13T01:30:17.727Z,92634.56
2023-01-13T01:33:03.278Z,92612.56
2023-01-13T01:35:46.151Z,92613.38
2023-01-13T01:38:29.164Z,92616.59
2023-01-13T01:41:17.250Z,92618.09
2023-01-13T01:44:07.208Z,92616.59
2023-01-13T01:46:50.302Z,92599.56
2023-01-13T01:49:36.435Z,92613.22
2023-01-13T01:52:22.867Z,92615.34
2023-01-13T01:55:09.908Z,92606.78
2023-01-13T01:57:56.257Z,92610.16
2023-01-13T02:00:40.801Z,92596.72
2023-01-13T02:03:24.292Z,92595.00
2023-01-13T02:06:07.941Z,92592.56
2023-01-13T02:08:50.835Z,92590.16
2023-01-13T02:11:52.751Z,92584.47
2023-01-13T02:14:36.722Z,92579.75
2023-01-13T02:17:33.508Z,92579.91
2023-01-13T02:20:44.015Z,92579.91
2023-01-13T02:24:11.802Z,92569.81
2023-01-13T02:27:37.828Z,92563.63
2023-01-13T02:31:04.178Z,92569.50
2023-01-13T02:34:02.091Z,92571.28
2023-01-13T02:36:53.479Z,92566.66
2023-01-13T02:39:43.241Z,92570.03
2023-01-13T02:42:49.623Z,92569.34
2023-01-13T02:45:38.925Z,92575.38
2023-01-13T02:48:24.033Z,92577.13
2023-01-13T02:51:10.696Z,92570.53
2023-01-13T02:53:59.657Z,92578.69
2023-01-13T02:56:46.174Z,92569.31
2023-01-13T02:59:31.403Z,92570.25
2023-01-13T03:02:20.224Z,92573.34
2023-01-13T03:05:03.323Z,92568.75
2023-01-13T03:08:18.635Z,92561.34
2023-01-13T03:11:05.813Z,92561.59
2023-01-13T03:13:59.035Z,92558.94
2023-01-13T03:16:55.522Z,92550.53
2023-01-13T03:19:47.671Z,92556.16
2023-01-13T03:22:37.172Z,92554.66
2023-01-13T03:25:27.169Z,92558.84
2023-01-13T03:28:17.007Z,92551.78
2023-01-13T03:31:05.942Z,92543.78
2023-01-13T03:33:56.162Z,92554.75
2023-01-13T03:36:42.080Z,92544.22
2023-01-13T03:39:30.829Z,92543.13
2023-01-13T03:42:18.635Z,92533.75
2023-01-13T03:45:07.960Z,92534.41
2023-01-13T03:47:55.068Z,92545.19
2023-01-13T03:50:42.745Z,92537.53
2023-01-13T03:53:31.888Z,92532.44
2023-01-13T03:56:22.316Z,92515.53
2023-01-13T03:59:09.971Z,92532.56
2023-01-13T04:02:00.805Z,92531.75
2023-01-13T04:04:49.333Z,92530.16
2023-01-13T04:07:42.867Z,92528.16
2023-01-13T04:10:32.278Z,92535.69
2023-01-13T04:13:20.938Z,92529.91
2023-01-13T04:16:06.293Z,92523.19
2023-01-13T04:18:51.301Z,92529.63
2023-01-13T04:21:35.279Z,92512.47
2023-01-13T04:24:18.073Z,92520.00
2023-01-13T04:27:02.248Z,92513.97
2023-01-13T04:29:45.041Z,92518.94
2023-01-13T04:32:27.835Z,92512.91
2023-01-13T04:35:10.695Z,92520.41
2023-01-13T04:37:53.790Z,92513.72
2023-01-13T04:40:36.730Z,92508.63
2023-01-13T04:43:21.143Z,92506.88
2023-01-13T04:46:04.018Z,92506.19
2023-01-13T04:48:46.885Z,92508.88
2023-01-13T04:51:29.722Z,92502.41
2023-01-13T04:54:12.866Z,92502.53
2023-01-13T04:56:55.750Z,92495.84
2023-01-13T04:59:41.989Z,92496.19
2023-01-13T05:02:24.784Z,92496.19
2023-01-13T05:05:08.641Z,92506.28
2023-01-13T05:07:51.522Z,92505.22
2023-01-13T05:10:34.323Z,92500.78
2023-01-13T05:13:34.723Z,92498.09
2023-01-13T05:16:36.420Z,92501.34
2023-01-13T05:19:19.222Z,92497.06
2023-01-13T05:22:20.441Z,92503.78
2023-01-13T05:25:20.606Z,92507.13
2023-01-13T05:28:03.465Z,92510.69
2023-01-13T05:30:49.266Z,92507.56
2023-01-13T05:33:35.723Z,92507.22
2023-01-13T05:36:18.777Z,92499.84
2023-01-13T05:39:01.741Z,92507.66
2023-01-13T05:42:02.213Z,92510.06
2023-01-13T05:44:44.979Z,92507.66
2023-01-13T05:47:27.797Z,92510.19
2023-01-13T05:50:12.350Z,92512.84
2023-01-13T05:52:54.979Z,92504.66
2023-01-13T05:55:40.513Z,92508.41
2023-01-13T05:58:25.836Z,92502.63
2023-01-13T06:01:10.527Z,92498.69
2023-01-13T06:03:53.325Z,92506.47
2023-01-13T06:06:37.524Z,92496.69
2023-01-13T06:09:21.060Z,92497.16
2023-01-13T06:12:03.944Z,92490.84
2023-01-13T06:14:46.719Z,92490.47
2023-01-13T06:17:29.621Z,92495.84
2023-01-13T06:20:13.759Z,92483.69
2023-01-13T06:22:58.945Z,92489.56
2023-01-13T06:25:47.717Z,92492.94
2023-01-13T06:28:30.548Z,92495.34
2023-01-13T06:31:13.699Z,92486.78
2023-01-13T06:34:01.347Z,92490.94
2023-01-13T06:36:47.266Z,92493.34
2023-01-13T06:39:32.621Z,92496.47
2023-01-13T06:42:33.441Z,92493.78
2023-01-13T06:45:16.341Z,92499.19
2023-01-13T06:48:00.764Z,92509.81
2023-01-13T06:50:43.623Z,92493.88
2023-01-13T06:53:26.463Z,92489.84
2023-01-13T06:56:10.651Z,92491.88
2023-01-13T06:58:53.542Z,92494.88
2023-01-13T07:01:36.462Z,92488.69
2023-01-13T07:04:19.646Z,92491.91
2023-01-13T07:07:02.451Z,92491.78
2023-01-13T07:09:45.304Z,92488.19
2023-01-13T07:12:29.484Z,92492.06
2023-01-13T07:15:20.403Z,92482.44
2023-01-13T07:18:03.739Z,92478.94
2023-01-13T07:20:53.131Z,92479.59
2023-01-13T07:23:38.000Z,92477.72
2023-01-13T07:26:21.894Z,92480.69
2023-01-13T07:29:06.069Z,92473.84
2023-01-13T07:31:50.242Z,92472.09
2023-01-13T07:34:33.320Z,92479.59
2023-01-13T07:37:16.314Z,92466.47
2023-01-13T07:39:59.123Z,92448.88
2023-01-13T07:42:59.431Z,92475.19
2023-01-13T07:45:43.660Z,92470.50
2023-01-13T07:48:26.706Z,92470.06
2023-01-13T07:51:11.485Z,92480.69
2023-01-13T07:53:54.380Z,92474.50
2023-01-13T07:56:37.206Z,92463.25
2023-01-13T07:59:20.053Z,92467.78
2023-01-13T08:02:04.477Z,92469.81
2023-01-13T08:04:47.392Z,92472.91
2023-01-13T08:07:30.215Z,92463.38
2023-01-13T08:10:13.226Z,92476.66
2023-01-13T08:13:13.454Z,92476.56
2023-01-13T08:16:01.863Z,92473.06
2023-01-13T08:18:46.049Z,92475.34
2023-01-13T08:21:28.856Z,92477.22
2023-01-13T08:24:11.719Z,92472.81
2023-01-13T08:26:54.613Z,92472.81
2023-01-13T08:29:37.477Z,92472.66
2023-01-13T08:32:20.269Z,92482.59
2023-01-13T08:35:04.551Z,92481.66
2023-01-13T08:37:48.231Z,92484.59
2023-01-13T08:40:31.226Z,92479.22
2023-01-13T08:43:14.149Z,92486.63
2023-01-13T08:45:58.912Z,92481.66
2023-01-13T08:48:41.776Z,92480.06
2023-01-13T08:51:25.937Z,92481.66
2023-01-13T08:54:08.830Z,92479.91
2023-01-13T08:56:51.673Z,92482.59
2023-01-13T08:59:34.994Z,92481.66
2023-01-13T09:02:20.221Z,92479.50
2023-01-13T09:05:04.565Z,92482.59
2023-01-13T09:07:48.714Z,92485.53
2023-01-13T09:10:32.399Z,92493.88
2023-01-13T09:13:15.453Z,92488.50
2023-01-13T09:15:58.340Z,92495.38
2023-01-13T09:18:41.142Z,92487.56
2023-01-13T09:21:24.065Z,92488.50
2023-01-13T09:24:08.973Z,92492.81
2023-01-13T09:26:52.148Z,92491.59
2023-01-13T09:29:34.982Z,92481.38
2023-01-13T09:32:17.836Z,92482.56
2023-01-13T09:35:02.731Z,92481.22
2023-01-13T09:37:45.857Z,92478.53
2023-01-13T09:40:30.141Z,92490.22
2023-01-13T09:43:37.400Z,92490.22
2023-01-13T09:46:41.306Z,92488.06
2023-01-13T09:49:28.420Z,92480.69
2023-01-13T09:52:15.788Z,92484.06
2023-01-13T09:55:05.495Z,92473.97
2023-01-13T09:57:49.855Z,92466.19
2023-01-13T10:00:40.009Z,92465.91
2023-01-13T10:03:26.322Z,92474.09
2023-01-13T10:06:16.682Z,92465.34
2023-01-13T10:08:59.521Z,92460.22
2023-01-13T10:12:03.081Z,92463.31
2023-01-13T10:14:54.030Z,92458.59
2023-01-13T10:17:45.771Z,92454.84
2023-01-13T10:20:36.321Z,92454.59
2023-01-13T10:23:39.719Z,92442.34
2023-01-13T10:26:34.994Z,92448.09
2023-01-13T10:29:21.598Z,92436.06
2023-01-13T10:32:06.156Z,92436.56
2023-01-13T10:34:51.153Z,92433.97
2023-01-13T10:37:34.003Z,92430.88
2023-01-13T10:40:19.613Z,92432.19
2023-01-13T10:43:06.996Z,92418.16
2023-01-13T10:45:58.021Z,92425.16
2023-01-13T10:48:44.052Z,92421.38
2023-01-13T10:51:28.319Z,92418.69
2023-01-13T10:54:20.392Z,92419.88
2023-01-13T10:57:20.134Z,92410.03
2023-01-13T11:00:05.336Z,92418.41
2023-01-13T11:03:16.899Z,92407.09
2023-01-13T11:06:01.750Z,92403.44
2023-01-13T11:08:46.630Z,92409.88
2023-01-13T11:11:40.308Z,92408.53
2023-01-13T11:14:40.290Z,92405.94
2023-01-13T11:17:35.001Z,92394.75
2023-01-13T11:20:22.672Z,92403.66
2023-01-13T11:23:15.624Z,92396.84
2023-01-13T11:26:03.726Z,92392.69
2023-01-13T11:28:54.412Z,92391.59
2023-01-13T11:31:41.961Z,92396.56
2023-01-13T11:34:31.247Z,92391.03
2023-01-13T11:37:20.604Z,92385.41
2023-01-13T11:40:08.622Z,92376.84
2023-01-13T11:42:56.990Z,92364.00
2023-01-13T11:45:43.588Z,92358.66
2023-01-13T11:48:30.216Z,92362.13
2023-01-13T11:51:28.226Z,92355.13
2023-01-13T11:54:28.229Z,92373.91
2023-01-13T11:57:41.293Z,92363.31
2023-01-13T12:00:33.952Z,92370.63
2023-01-13T12:03:25.571Z,92374.94
2023-01-13T12:06:18.466Z,92376.84
2023-01-13T12:09:30.964Z,92373.63
2023-01-13T12:12:27.842Z,92372.00
2023-01-13T12:15:35.954Z,92366.75
2023-01-13T12:18:35.797Z,92365.16
2023-01-13T12:21:23.087Z,92363.53
2023-01-13T12:24:19.039Z,92363.97
2023-01-13T12:27:07.146Z,92373.56
2023-01-13T12:29:55.534Z,92370.47
2023-01-13T12:32:41.205Z,92372.53
2023-01-13T12:35:37.787Z,92366.81
2023-01-13T12:38:33.541Z,92373.19
2023-01-13T12:41:32.487Z,92366.31
2023-01-13T12:44:17.299Z,92366.47
2023-01-13T12:47:01.061Z,92373.63
2023-01-13T12:49:45.952Z,92373.50
2023-01-13T12:52:31.526Z,92372.53
2023-01-13T12:55:19.977Z,92371.72
2023-01-13T12:58:18.945Z,92361.50
2023-01-13T13:01:11.882Z,92357.03
2023-01-13T13:04:10.973Z,92366.47
2023-01-13T13:07:08.782Z,92362.94
2023-01-13T13:09:57.233Z,92366.31
2023-01-13T13:13:15.541Z,92363.59
2023-01-13T13:16:46.284Z,92368.72
2023-01-13T13:19:56.607Z,92365.50
2023-01-13T13:22:45.666Z,92365.50
2023-01-13T13:25:28.615Z,92375.72
2023-01-13T13:28:20.144Z,92374.16
2023-01-13T13:31:20.554Z,92379.41
2023-01-13T13:34:26.030Z,92380.22
2023-01-13T13:37:22.840Z,92375.22
2023-01-13T13:40:29.090Z,92378.59
2023-01-13T13:43:31.637Z,92380.34
2023-01-13T13:46:43.249Z,92394.91
2023-01-13T13:49:40.783Z,92395.25
2023-01-13T13:52:30.606Z,92406.03
2023-01-13T13:55:18.811Z,92415.31
2023-01-13T13:58:02.608Z,92420.72
2023-01-13T14:00:49.100Z,92423.44
2023-01-13T14:03:35.918Z,92430.44
2023-01-13T14:06:24.269Z,92430.34
2023-01-13T14:09:17.631Z,92432.09
2023-01-13T14:12:03.249Z,92439.41
2023-01-13T14:14:47.285Z,92439.13
2023-01-13T14:17:31.958Z,92433.28
2023-01-13T14:20:17.240Z,92439.31
2023-01-13T14:23:05.244Z,92434.63
2023-01-13T14:25:49.440Z,92427.53
2023-01-13T14:28:36.597Z,92437.38
2023-01-13T14:31:19.743Z,92447.16
2023-01-13T14:34:31.207Z,92469.50
2023-01-13T14:37:23.916Z,92456.63
2023-01-13T14:40:44.758Z,92453.00
2023-01-13T14:43:27.693Z,92473.84
2023-01-13T14:46:11.035Z,92475.47
2023-01-13T14:49:01.213Z,92473.28
2023-01-13T14:51:44.039Z,92464.16
2023-01-13T14:54:48.366Z,92464.03
2023-01-13T14:57:33.443Z,92462.00
2023-01-13T15:00:22.779Z,92456.66
2023-01-13T15:03:08.652Z,92472.91
2023-01-13T15:05:54.264Z,92475.47
2023-01-13T15:08:38.553Z,92478.69
2023-01-13T15:11:29.062Z,92494.00
2023-01-13T15:14:13.469Z,92498.44
2023-01-13T15:16:57.763Z,92512.28
2023-01-13T15:19:40.593Z,92524.38
2023-01-13T15:22:23.357Z,92527.88
2023-01-13T15:25:09.582Z,92538.22
2023-01-13T15:27:54.253Z,92538.50
2023-01-13T15:30:38.261Z,92548.84
2023-01-13T15:33:22.207Z,92554.91
2023-01-13T15:36:08.089Z,92559.22
2023-01-13T15:38:51.298Z,92555.03
2023-01-13T15:41:51.748Z,92561.88
2023-01-13T15:44:51.968Z,92579.06
2023-01-13T15:47:36.530Z,92578.69
2023-01-13T15:50:20.899Z,92593.72
2023-01-13T15:53:03.945Z,92598.41
2023-01-13T15:55:51.510Z,92602.97
2023-01-13T15:58:34.295Z,92600.66
2023-01-13T16:01:17.180Z,92587.34
2023-01-13T16:04:01.311Z,92592.16
2023-01-13T16:06:44.441Z,92585.06
2023-01-13T16:09:27.219Z,92583.28
2023-01-13T16:12:10.048Z,92590.16
2023-01-13T16:14:52.889Z,92597.91
2023-01-13T16:17:36.600Z,92593.63
2023-01-13T16:20:21.228Z,92594.44
2023-01-13T16:23:04.576Z,92601.94
2023-01-13T16:25:47.704Z,92592.78
2023-01-13T16:28:30.574Z,92585.41
2023-01-13T16:31:19.981Z,92568.34
2023-01-13T16:34:04.166Z,92626.09
2023-01-13T16:36:48.496Z,92633.50
2023-01-13T16:39:31.892Z,92643.81
2023-01-13T16:42:14.972Z,92644.50
2023-01-13T16:44:58.699Z,92647.03
2023-01-13T16:47:42.416Z,92651.22
2023-01-13T16:50:35.051Z,92656.19
2023-01-13T16:53:19.270Z,92660.63
2023-01-13T16:56:02.260Z,92671.88
2023-01-13T16:58:45.039Z,92665.97
2023-01-13T17:01:30.419Z,92673.63
2023-01-13T17:04:16.972Z,92683.03
2023-01-13T17:07:03.957Z,92672.00
2023-01-13T17:09:48.124Z,92673.19
2023-01-13T17:12:30.963Z,92677.50
2023-01-13T17:15:14.591Z,92689.81
2023-01-13T17:17:57.430Z,92695.84
2023-01-13T17:20:40.253Z,92695.31
2023-01-13T17:23:23.072Z,92697.16
2023-01-13T17:26:07.488Z,92700.19
2023-01-13T17:28:50.254Z,92701.81
2023-01-13T17:31:33.541Z,92700.72
2023-01-13T17:34:16.371Z,92705.56
2023-01-13T17:36:59.180Z,92710.91
2023-01-13T17:39:44.169Z,92719.25
2023-01-13T17:42:29.690Z,92720.44
2023-01-13T17:45:12.900Z,92719.88
2023-01-13T17:47:57.935Z,92725.22
2023-01-13T17:50:41.182Z,92725.31
2023-01-13T17:53:24.002Z,92729.88
2023-01-13T17:56:07.930Z,92726.63
2023-01-13T17:58:52.088Z,92727.94
2023-01-13T18:01:35.002Z,92733.50
2023-01-13T18:04:19.662Z,92737.94
2023-01-13T18:07:02.300Z,92742.47
2023-01-13T18:09:45.079Z,92746.75
2023-01-13T18:12:27.878Z,92746.22
2023-01-13T18:15:12.147Z,92745.94
2023-01-13T18:17:54.946Z,92749.56
2023-01-13T18:20:55.196Z,92757.75
2023-01-13T18:23:55.352Z,92745.94
2023-01-13T18:26:55.636Z,92753.72
2023-01-13T18:29:38.434Z,92759.59
2023-01-13T18:32:24.186Z,92756.97
2023-01-13T18:35:10.253Z,92765.53
2023-01-13T18:37:53.223Z,92768.09
2023-01-13T18:40:36.027Z,92771.44
2023-01-13T18:43:17.888Z,92774.47
2023-01-13T18:46:00.721Z,92781.28
2023-01-13T18:48:44.906Z,92788.16
2023-01-13T18:51:27.802Z,92806.22
2023-01-13T18:54:10.702Z,92794.53
2023-01-13T18:56:53.504Z,92793.84
2023-01-13T18:59:36.313Z,92805.66
2023-01-13T19:02:21.625Z,92815.03
2023-01-13T19:05:06.765Z,92816.53
2023-01-13T19:07:51.792Z,92813.28
2023-01-13T19:10:34.688Z,92816.06
2023-01-13T19:13:18.558Z,92818.06
2023-01-13T19:16:05.605Z,92806.84
2023-01-13T19:18:49.769Z,92818.41
2023-01-13T19:21:33.945Z,92815.19
2023-01-13T19:24:16.743Z,92819.69
2023-01-13T19:26:59.546Z,92823.97
2023-01-13T19:29:43.284Z,92828.50
2023-01-13T19:32:35.908Z,92839.50
2023-01-13T19:35:19.928Z,92832.91
2023-01-13T19:38:04.336Z,92841.47
2023-01-13T19:40:53.619Z,92833.94
2023-01-13T19:43:56.091Z,92845.28
2023-01-13T19:46:39.022Z,92844.34
2023-01-13T19:49:21.862Z,92855.34
2023-01-13T19:52:05.128Z,92846.31
2023-01-13T19:54:49.536Z,92848.88
2023-01-13T19:57:32.351Z,92856.41
2023-01-13T20:00:20.447Z,92851.41
2023-01-13T20:03:08.025Z,92852.25
2023-01-13T20:05:51.248Z,92852.47
2023-01-13T20:08:34.072Z,92853.25
2023-01-13T20:11:30.881Z,92857.91
2023-01-13T20:14:13.732Z,92859.28
2023-01-13T20:16:56.568Z,92860.78
2023-01-13T20:19:39.408Z,92865.56
2023-01-13T20:22:22.196Z,92876.75
2023-01-13T20:25:05.520Z,92868.91
2023-01-13T20:27:49.895Z,92877.59
2023-01-13T20:30:32.732Z,92874.22
2023-01-13T20:33:15.530Z,92883.47
2023-01-13T20:35:59.008Z,92891.34
2023-01-13T20:38:41.870Z,92886.25
2023-01-13T20:41:42.020Z,92882.78
2023-01-13T20:44:26.195Z,92895.28
2023-01-13T20:47:09.270Z,92898.75
2023-01-13T20:49:52.128Z,92896.09
2023-01-13T20:52:34.918Z,92892.63
2023-01-13T20:55:17.811Z,92893.66
2023-01-13T20:58:00.578Z,92891.81
2023-01-13T21:00:44.765Z,92894.47
2023-01-13T21:03:27.572Z,92889.50
2023-01-13T21:06:10.445Z,92892.16
2023-01-13T21:08:54.211Z,92898.75
2023-01-13T21:11:54.447Z,92896.22
2023-01-13T21:14:54.733Z,92901.91
2023-01-13T21:17:56.408Z,92907.09
2023-01-13T21:20:40.083Z,92924.13
2023-01-13T21:23:22.831Z,92922.28
2023-01-13T21:26:05.943Z,92921.31
2023-01-13T21:28:49.688Z,92916.00
2023-01-13T21:31:32.503Z,92914.28
2023-01-13T21:34:16.866Z,92927.03
2023-01-13T21:37:00.143Z,92925.28
2023-01-13T21:39:43.257Z,92928.88
2023-01-13T21:42:43.393Z,92932.09
2023-01-13T21:45:43.665Z,92925.63
2023-01-13T21:48:26.480Z,92924.69
2023-01-13T21:51:10.628Z,92929.09
2023-01-13T21:53:54.130Z,92927.38
2023-01-13T21:56:36.969Z,92932.34
2023-01-13T21:59:19.753Z,92933.13
2023-01-13T22:02:23.635Z,92923.88
2023-01-13T22:05:09.444Z,92929.78
2023-01-13T22:07:53.735Z,92927.47
2023-01-13T22:10:36.923Z,92935.94
2023-01-13T22:13:39.421Z,92932.78
2023-01-13T22:16:22.313Z,92934.16
2023-01-13T22:19:05.197Z,92932.06
2023-01-13T22:21:48.023Z,92927.81
2023-01-13T22:24:32.348Z,92943.78
2023-01-13T22:27:18.317Z,92942.88
2023-01-13T22:30:01.127Z,92938.91
2023-01-13T22:32:44.004Z,92945.63
2023-01-13T22:35:26.795Z,92955.81
2023-01-13T22:38:12.072Z,92960.00
2023-01-13T22:41:00.620Z,92966.94
2023-01-13T22:43:43.402Z,92971.91
2023-01-13T22:46:26.328Z,92972.94
2023-01-13T22:49:09.116Z,92963.56
2023-01-13T22:51:51.988Z,92967.97
2023-01-13T22:54:34.749Z,92957.19
2023-01-13T22:57:18.948Z,92950.38
2023-01-13T23:00:02.103Z,92954.97
2023-01-13T23:02:44.901Z,92953.25
2023-01-13T23:05:28.155Z,92950.00
2023-01-13T23:08:12.368Z,92957.31
2023-01-13T23:11:01.752Z,92952.44
2023-01-13T23:13:46.419Z,92968.41
2023-01-13T23:16:31.366Z,92962.63
2023-01-13T23:19:14.328Z,92977.88
2023-01-13T23:21:57.118Z,92974.53
2023-01-13T23:24:39.903Z,92973.72
2023-01-13T23:27:22.714Z,92986.66
2023-01-13T23:30:09.386Z,92988.91
2023-01-13T23:32:52.177Z,92976.97
2023-01-13T23:35:34.933Z,92982.88
2023-01-13T23:38:17.744Z,92987.97
2023-01-13T23:41:00.918Z,93001.50
2023-01-13T23:43:43.912Z,93001.63
2023-01-13T23:46:29.482Z,92999.75
2023-01-13T23:49:12.256Z,93004.28
2023-01-13T23:51:55.242Z,93010.06
2023-01-13T23:54:38.033Z,93007.72
2023-01-13T23:57:20.817Z,93011.00
